Time;durP1;ratioP1;P1;durP2;ratioP2;P2;SDS_P1;SDS_P2;PMS_P1;PMS_P2;Temp;Humidity;BMP_temperature;BMP_pressure;BME280_temperature;BME280_humidity;BME280_pressure;Samples;Min_cycle;Max_cycle;Signal;HPM_P1;HPM_P2
2023/10/24 00:01:16;;;;;;;;;;;22.90;53.30;;;;;;5093691;28;19924;-59
2023/10/24 00:03:43;;;;;;;;;;;22.90;53.30;;;;;;5093414;28;19924;-59
2023/10/24 00:06:10;;;;;;;;;;;22.90;53.30;;;;;;5094018;28;20369;-59
2023/10/24 00:08:36;;;;;;;;;;;22.90;53.30;;;;;;5093388;28;19954;-59
2023/10/24 00:11:05;;;;;;;;;;;22.90;53.30;;;;;;5093907;28;20010;-59
2023/10/24 00:13:32;;;;;;;;;;;22.90;53.30;;;;;;5093707;28;20002;-58
2023/10/24 00:15:59;;;;;;;;;;;22.90;53.80;;;;;;5093651;28;19924;-59
2023/10/24 00:18:26;;;;;;;;;;;22.90;53.30;;;;;;5097059;28;20378;-59
2023/10/24 00:20:54;;;;;;;;;;;22.90;53.30;;;;;;5097837;28;19924;-59
2023/10/24 00:23:20;;;;;;;;;;;22.90;53.30;;;;;;5097863;28;19988;-59
2023/10/24 00:25:47;;;;;;;;;;;22.90;53.30;;;;;;5097737;28;19971;-59
2023/10/24 00:28:15;;;;;;;;;;;22.90;53.30;;;;;;5097685;28;20287;-59
2023/10/24 00:30:42;;;;;;;;;;;22.90;53.30;;;;;;5097406;28;19925;-59
2023/10/24 00:33:09;;;;;;;;;;;22.90;53.30;;;;;;5097271;28;20430;-59
2023/10/24 00:35:36;;;;;;;;;;;22.90;53.30;;;;;;5097121;28;19967;-59
2023/10/24 00:38:03;;;;;;;;;;;22.90;53.40;;;;;;5096267;28;20331;-59
2023/10/24 00:40:32;;;;;;;;;;;22.90;53.40;;;;;;5097512;28;19924;-59
2023/10/24 00:43:06;;;;;;;;;;;22.80;53.30;;;;;;5097267;28;19967;-59
2023/10/24 00:45:34;;;;;;;;;;;22.80;53.30;;;;;;5097519;28;19954;-59
2023/10/24 00:48:05;;;;;;;;;;;22.90;53.40;;;;;;5097121;28;19928;-60
2023/10/24 00:50:32;;;;;;;;;;;22.80;53.30;;;;;;5096119;28;19930;-60
2023/10/24 00:53:00;;;;;;;;;;;22.80;53.40;;;;;;5097236;28;19924;-60
2023/10/24 00:55:28;;;;;;;;;;;22.80;53.40;;;;;;5096911;28;19968;-59
2023/10/24 00:57:55;;;;;;;;;;;22.80;53.40;;;;;;5096567;28;19928;-57
2023/10/24 01:00:24;;;;;;;;;;;22.80;53.40;;;;;;5096766;28;19970;-57
2023/10/24 01:02:51;;;;;;;;;;;22.80;53.50;;;;;;5096398;28;19928;-58
2023/10/24 01:05:18;;;;;;;;;;;22.80;53.50;;;;;;5096687;28;19924;-57
2023/10/24 01:07:46;;;;;;;;;;;22.80;53.50;;;;;;5096201;28;19924;-58
2023/10/24 01:10:13;;;;;;;;;;;22.90;53.60;;;;;;5096547;28;19931;-58
2023/10/24 01:12:40;;;;;;;;;;;22.80;53.50;;;;;;5096704;28;19985;-58
2023/10/24 01:15:07;;;;;;;;;;;22.80;53.60;;;;;;5096582;28;19924;-58
2023/10/24 01:17:34;;;;;;;;;;;22.80;53.50;;;;;;5096163;28;20035;-58
2023/10/24 01:20:02;;;;;;;;;;;22.80;53.50;;;;;;5096357;28;20018;-58
2023/10/24 01:22:29;;;;;;;;;;;22.80;53.50;;;;;;5096857;28;19924;-58
2023/10/24 01:24:56;;;;;;;;;;;22.80;53.40;;;;;;5096537;28;19931;-57
2023/10/24 01:27:23;;;;;;;;;;;22.90;53.40;;;;;;5095800;28;19954;-58
2023/10/24 01:29:50;;;;;;;;;;;22.90;53.40;;;;;;5095341;28;19970;-57
2023/10/24 01:32:17;;;;;;;;;;;22.90;53.40;;;;;;5096387;28;20378;-58
2023/10/24 01:34:44;;;;;;;;;;;22.90;53.40;;;;;;5096120;28;19924;-58
2023/10/24 01:37:11;;;;;;;;;;;22.90;53.40;;;;;;5096283;28;19928;-58
2023/10/24 01:39:38;;;;;;;;;;;22.90;53.40;;;;;;5096147;28;19924;-57
2023/10/24 01:42:05;;;;;;;;;;;22.80;53.30;;;;;;5096213;28;20031;-58
2023/10/24 01:44:32;;;;;;;;;;;22.80;53.30;;;;;;5096278;28;19941;-57
2023/10/24 01:46:59;;;;;;;;;;;22.80;53.30;;;;;;5096340;28;19924;-58
2023/10/24 01:49:26;;;;;;;;;;;22.80;53.30;;;;;;5095969;28;19924;-58
2023/10/24 01:51:53;;;;;;;;;;;22.90;53.40;;;;;;5096147;28;19935;-58
2023/10/24 01:54:20;;;;;;;;;;;22.80;53.30;;;;;;5095613;28;20023;-58
2023/10/24 01:56:47;;;;;;;;;;;22.80;53.90;;;;;;5096151;28;20001;-57
2023/10/24 01:59:14;;;;;;;;;;;22.80;53.40;;;;;;5095581;28;20365;-58
2023/10/24 02:01:41;;;;;;;;;;;22.80;53.30;;;;;;5095512;28;20019;-58
2023/10/24 02:04:08;;;;;;;;;;;22.80;53.30;;;;;;5095322;28;19932;-58
2023/10/24 02:06:40;;;;;;;;;;;22.80;53.40;;;;;;5095891;28;19928;-58
2023/10/24 02:09:07;;;;;;;;;;;22.80;53.40;;;;;;5095668;28;19924;-58
2023/10/24 02:11:34;;;;;;;;;;;22.80;53.40;;;;;;5095453;28;19924;-58
2023/10/24 02:14:01;;;;;;;;;;;22.80;53.40;;;;;;5095677;28;19971;-57
2023/10/24 02:16:28;;;;;;;;;;;22.80;53.40;;;;;;5095229;28;19930;-58
2023/10/24 02:18:55;;;;;;;;;;;22.80;53.40;;;;;;5095521;28;19963;-60
2023/10/24 02:21:22;;;;;;;;;;;22.80;53.40;;;;;;5095329;28;19990;-58
2023/10/24 02:23:49;;;;;;;;;;;22.80;54.00;;;;;;5095264;28;20020;-62
2023/10/24 02:26:16;;;;;;;;;;;22.80;53.40;;;;;;5095415;28;19924;-61
2023/10/24 02:28:43;;;;;;;;;;;22.80;53.50;;;;;;5095083;28;20396;-60
2023/10/24 02:31:10;;;;;;;;;;;22.80;53.50;;;;;;5095348;28;20011;-58
2023/10/24 02:33:37;;;;;;;;;;;22.80;53.60;;;;;;5094989;28;20269;-59
2023/10/24 02:36:08;;;;;;;;;;;22.80;53.50;;;;;;5093812;28;19954;-61
2023/10/24 02:38:35;;;;;;;;;;;22.80;53.60;;;;;;5095059;28;19928;-67
2023/10/24 02:41:03;;;;;;;;;;;22.80;53.60;;;;;;5094559;28;19946;-61
2023/10/24 02:43:30;;;;;;;;;;;22.80;53.70;;;;;;5095109;28;19924;-63
2023/10/24 02:45:58;;;;;;;;;;;22.80;53.60;;;;;;5094984;28;19924;-67
2023/10/24 02:48:25;;;;;;;;;;;22.80;53.50;;;;;;5094946;28;19971;-58
2023/10/24 02:50:53;;;;;;;;;;;22.80;53.50;;;;;;5095074;28;19928;-57
2023/10/24 02:53:20;;;;;;;;;;;22.80;53.40;;;;;;5094829;28;19923;-62
2023/10/24 02:55:48;;;;;;;;;;;22.80;53.40;;;;;;5094574;28;19928;-62
2023/10/24 02:58:16;;;;;;;;;;;22.80;53.30;;;;;;5094511;28;19967;-58
2023/10/24 03:00:44;;;;;;;;;;;22.80;53.30;;;;;;5094808;28;20286;-64
2023/10/24 03:03:11;;;;;;;;;;;22.80;53.30;;;;;;5093431;28;20019;-63
2023/10/24 03:05:38;;;;;;;;;;;22.80;53.30;;;;;;5094672;28;19970;-63
2023/10/24 03:08:05;;;;;;;;;;;22.80;53.30;;;;;;5094505;28;19972;-58
2023/10/24 03:10:38;;;;;;;;;;;22.80;53.30;;;;;;5094510;28;20026;-58
2023/10/24 03:13:05;;;;;;;;;;;22.80;53.30;;;;;;5094256;28;19925;-58
2023/10/24 03:15:33;;;;;;;;;;;22.80;53.30;;;;;;5094623;28;20027;-58
2023/10/24 03:18:00;;;;;;;;;;;22.80;53.30;;;;;;5094462;28;19924;-57
2023/10/24 03:20:27;;;;;;;;;;;22.80;53.30;;;;;;5094326;28;19924;-58
2023/10/24 03:22:55;;;;;;;;;;;22.80;53.30;;;;;;5094342;28;20018;-58
2023/10/24 03:25:23;;;;;;;;;;;22.80;53.40;;;;;;5094323;28;19924;-58
2023/10/24 03:27:51;;;;;;;;;;;22.90;53.40;;;;;;5085089;28;19924;-58
2023/10/24 03:30:18;;;;;;;;;;;22.80;53.40;;;;;;5080835;28;19978;-58
2023/10/24 03:32:44;;;;;;;;;;;22.80;53.30;;;;;;5096149;28;20273;-58
2023/10/24 03:35:12;;;;;;;;;;;22.80;53.40;;;;;;5079564;28;19959;-58
2023/10/24 03:37:40;;;;;;;;;;;22.80;53.30;;;;;;5073451;28;20347;-58
2023/10/24 03:40:08;;;;;;;;;;;22.80;53.30;;;;;;5073859;28;19931;-58
2023/10/24 03:42:35;;;;;;;;;;;22.80;53.30;;;;;;5073678;28;20023;-58
2023/10/24 03:45:02;;;;;;;;;;;22.80;53.40;;;;;;5074672;28;19924;-58
2023/10/24 03:47:29;;;;;;;;;;;22.80;53.40;;;;;;5083015;28;19924;-58
2023/10/24 03:49:56;;;;;;;;;;;22.80;53.40;;;;;;5087284;28;19951;-58
2023/10/24 03:52:23;;;;;;;;;;;22.80;53.50;;;;;;5075754;28;19935;-58
2023/10/24 03:54:50;;;;;;;;;;;22.80;53.50;;;;;;5073831;28;19924;-57
2023/10/24 03:57:17;;;;;;;;;;;22.80;53.50;;;;;;5073314;28;19967;-57
2023/10/24 03:59:44;;;;;;;;;;;22.80;53.50;;;;;;5073230;28;19925;-58
2023/10/24 04:02:11;;;;;;;;;;;22.80;53.50;;;;;;5088085;28;19924;-58
2023/10/24 04:04:37;;;;;;;;;;;22.80;53.50;;;;;;5093789;28;19970;-58
2023/10/24 04:07:05;;;;;;;;;;;22.80;53.50;;;;;;5093661;28;20395;-58
2023/10/24 04:09:32;;;;;;;;;;;22.80;53.50;;;;;;5093731;28;19928;-58
2023/10/24 04:12:06;;;;;;;;;;;22.80;53.50;;;;;;5093800;28;19924;-58
2023/10/24 04:14:33;;;;;;;;;;;22.90;53.50;;;;;;5092255;28;19928;-58
2023/10/24 04:17:00;;;;;;;;;;;22.80;53.40;;;;;;5093599;28;20386;-58
2023/10/24 04:19:27;;;;;;;;;;;22.80;53.40;;;;;;5093266;28;19924;-58
2023/10/24 04:21:54;;;;;;;;;;;22.80;53.30;;;;;;5093714;28;19947;-58
2023/10/24 04:24:21;;;;;;;;;;;22.80;53.30;;;;;;5093261;28;20384;-58
2023/10/24 04:26:48;;;;;;;;;;;22.80;53.30;;;;;;5093615;28;19924;-58
2023/10/24 04:29:16;;;;;;;;;;;22.80;53.30;;;;;;5093615;28;20006;-57
2023/10/24 04:31:43;;;;;;;;;;;22.90;53.40;;;;;;5092992;28;19971;-58
2023/10/24 04:34:10;;;;;;;;;;;22.90;53.30;;;;;;5087096;28;19928;-57
2023/10/24 04:36:37;;;;;;;;;;;22.90;53.30;;;;;;5093799;28;19964;-58
2023/10/24 04:39:04;;;;;;;;;;;22.80;53.30;;;;;;5074107;28;19924;-58
2023/10/24 04:41:31;;;;;;;;;;;22.90;53.10;;;;;;5073352;28;19972;-58
2023/10/24 04:43:58;;;;;;;;;;;22.90;52.80;;;;;;5079897;28;19924;-58
2023/10/24 04:46:25;;;;;;;;;;;22.90;52.50;;;;;;5093422;28;19924;-58
2023/10/24 04:48:52;;;;;;;;;;;22.90;52.30;;;;;;5079196;28;20007;-58
2023/10/24 04:51:19;;;;;;;;;;;22.90;52.20;;;;;;5083040;28;19925;-61
2023/10/24 04:53:46;;;;;;;;;;;22.90;52.20;;;;;;5072833;28;19928;-58
2023/10/24 04:56:13;;;;;;;;;;;22.90;52.20;;;;;;5072789;28;20388;-62
2023/10/24 04:58:40;;;;;;;;;;;22.90;52.10;;;;;;5073016;28;20007;-59
2023/10/24 05:01:08;;;;;;;;;;;22.90;52.00;;;;;;5071711;28;19931;-64
2023/10/24 05:03:36;;;;;;;;;;;22.80;52.00;;;;;;5074869;28;20011;-64
2023/10/24 05:06:04;;;;;;;;;;;22.80;51.90;;;;;;5076448;28;19924;-58
2023/10/24 05:08:31;;;;;;;;;;;22.80;51.90;;;;;;5084902;28;20003;-65
2023/10/24 05:10:58;;;;;;;;;;;22.80;52.00;;;;;;5093141;28;19936;-64
2023/10/24 05:13:26;;;;;;;;;;;22.80;51.90;;;;;;5084975;28;19982;-59
2023/10/24 05:15:53;;;;;;;;;;;22.80;51.90;;;;;;5096068;28;19931;-59
2023/10/24 05:18:20;;;;;;;;;;;22.90;51.90;;;;;;5105776;28;19928;-59
2023/10/24 05:20:47;;;;;;;;;;;22.80;51.70;;;;;;5089289;28;20018;-59
2023/10/24 05:23:14;;;;;;;;;;;22.80;51.90;;;;;;5079306;28;19978;-62
2023/10/24 05:25:41;;;;;;;;;;;22.80;51.80;;;;;;5081219;28;20022;-59
2023/10/24 05:28:10;;;;;;;;;;;22.80;51.70;;;;;;5075884;28;19928;-58
2023/10/24 05:30:39;;;;;;;;;;;22.90;51.60;;;;;;5076861;28;19929;-59
2023/10/24 05:33:06;;;;;;;;;;;22.90;51.50;;;;;;5083079;28;19977;-58
2023/10/24 05:35:33;;;;;;;;;;;22.90;51.30;;;;;;5076641;28;19928;-60
2023/10/24 05:38:01;;;;;;;;;;;22.90;51.20;;;;;;5079862;28;19932;-60
2023/10/24 05:40:28;;;;;;;;;;;22.90;51.00;;;;;;5069587;28;19925;-60
2023/10/24 05:42:55;;;;;;;;;;;22.90;50.90;;;;;;5076713;28;20292;-60
2023/10/24 05:45:23;;;;;;;;;;;23.00;51.30;;;;;;5081072;28;20387;-60
2023/10/24 05:47:51;;;;;;;;;;;23.00;50.70;;;;;;5073277;28;19928;-60
2023/10/24 05:50:19;;;;;;;;;;;23.00;50.50;;;;;;5082291;28;19954;-57
2023/10/24 05:52:46;;;;;;;;;;;23.00;50.60;;;;;;5079534;28;20330;-59
2023/10/24 05:55:14;;;;;;;;;;;23.00;50.90;;;;;;5081099;28;20404;-61
2023/10/24 05:57:41;;;;;;;;;;;23.10;51.10;;;;;;5079498;28;19929;-61
2023/10/24 06:00:09;;;;;;;;;;;23.10;50.90;;;;;;5077727;28;19936;-64
2023/10/24 06:02:37;;;;;;;;;;;23.10;51.00;;;;;;5077518;28;19935;-61
2023/10/24 06:05:04;;;;;;;;;;;23.10;51.00;;;;;;5078979;28;19938;-62
2023/10/24 06:07:31;;;;;;;;;;;23.20;51.10;;;;;;5073662;28;19924;-62
2023/10/24 06:09:58;;;;;;;;;;;23.20;51.10;;;;;;5073290;28;19928;-62
2023/10/24 06:12:27;;;;;;;;;;;23.30;51.10;;;;;;5073143;28;19932;-62
2023/10/24 06:14:55;;;;;;;;;;;23.30;50.80;;;;;;5077402;28;19932;-61
2023/10/24 06:17:23;;;;;;;;;;;23.30;50.40;;;;;;5071372;28;19932;-61
2023/10/24 06:19:51;;;;;;;;;;;23.40;50.30;;;;;;5071984;28;20380;-61
2023/10/24 06:22:18;;;;;;;;;;;23.40;50.30;;;;;;5069444;28;20028;-61
2023/10/24 06:24:45;;;;;;;;;;;23.40;50.40;;;;;;5072330;28;19952;-61
2023/10/24 06:27:13;;;;;;;;;;;23.40;50.50;;;;;;5075382;28;19929;-62
2023/10/24 06:29:40;;;;;;;;;;;23.50;50.50;;;;;;5078942;28;19947;-63
2023/10/24 06:32:08;;;;;;;;;;;23.50;50.50;;;;;;5075600;28;19932;-62
2023/10/24 06:34:36;;;;;;;;;;;23.60;50.30;;;;;;5072173;28;19928;-62
2023/10/24 06:37:03;;;;;;;;;;;23.60;49.80;;;;;;5070952;28;20464;-61
2023/10/24 06:39:32;;;;;;;;;;;23.60;50.00;;;;;;5066849;28;20457;-62
2023/10/24 06:42:00;;;;;;;;;;;23.60;50.00;;;;;;5074680;28;20026;-63
2023/10/24 06:44:28;;;;;;;;;;;23.70;49.90;;;;;;5073336;28;19943;-63
2023/10/24 06:46:55;;;;;;;;;;;23.70;49.80;;;;;;5071854;28;20345;-60
2023/10/24 06:49:23;;;;;;;;;;;23.80;49.80;;;;;;5071818;28;19928;-63
2023/10/24 06:51:50;;;;;;;;;;;23.80;49.80;;;;;;5077063;28;20011;-62
2023/10/24 06:54:17;;;;;;;;;;;23.80;49.60;;;;;;5070429;28;19928;-61
2023/10/24 06:56:44;;;;;;;;;;;23.90;49.50;;;;;;5074503;28;19939;-61
2023/10/24 06:59:11;;;;;;;;;;;23.90;49.40;;;;;;5071516;28;20026;-61
2023/10/24 07:01:38;;;;;;;;;;;23.90;49.20;;;;;;5072703;28;20015;-61
2023/10/24 07:04:06;;;;;;;;;;;23.90;49.00;;;;;;5078552;28;19968;-60
2023/10/24 07:06:33;;;;;;;;;;;24.00;49.10;;;;;;5079097;28;19924;-62
2023/10/24 07:09:00;;;;;;;;;;;24.00;49.00;;;;;;5077178;28;20003;-59
2023/10/24 07:11:29;;;;;;;;;;;24.10;49.00;;;;;;5082067;28;19929;-60
2023/10/24 07:13:56;;;;;;;;;;;24.10;49.00;;;;;;5076388;28;19955;-61
2023/10/24 07:16:25;;;;;;;;;;;24.10;48.80;;;;;;5076445;28;20296;-61
2023/10/24 07:18:52;;;;;;;;;;;24.10;48.40;;;;;;5075386;28;19924;-62
2023/10/24 07:21:22;;;;;;;;;;;24.20;48.40;;;;;;5071508;28;19997;-62
2023/10/24 07:23:50;;;;;;;;;;;24.20;48.40;;;;;;5073892;28;20007;-63
2023/10/24 07:26:18;;;;;;;;;;;24.20;48.30;;;;;;5074492;28;19934;-63
2023/10/24 07:28:45;;;;;;;;;;;24.20;48.20;;;;;;5075030;28;19929;-61
2023/10/24 07:31:12;;;;;;;;;;;24.30;48.10;;;;;;5076350;28;20380;-62
2023/10/24 07:33:43;;;;;;;;;;;24.30;47.90;;;;;;5072795;28;20292;-62
2023/10/24 07:36:10;;;;;;;;;;;24.40;47.90;;;;;;5074601;28;19932;-62
2023/10/24 07:38:38;;;;;;;;;;;24.40;47.80;;;;;;5069325;28;20005;-67
2023/10/24 07:41:06;;;;;;;;;;;24.40;47.90;;;;;;5079020;28;19932;-62
2023/10/24 07:43:33;;;;;;;;;;;24.40;48.00;;;;;;5072190;28;19939;-61
2023/10/24 07:46:00;;;;;;;;;;;24.40;48.00;;;;;;5070841;28;19932;-62
2023/10/24 07:48:27;;;;;;;;;;;24.50;48.00;;;;;;5076759;28;20395;-61
2023/10/24 07:50:56;;;;;;;;;;;24.50;48.00;;;;;;5075866;28;20438;-61
2023/10/24 07:53:24;;;;;;;;;;;24.50;48.00;;;;;;5075676;28;20392;-62
2023/10/24 07:55:51;;;;;;;;;;;24.50;47.90;;;;;;5075474;28;20265;-61
2023/10/24 07:58:19;;;;;;;;;;;24.50;47.80;;;;;;5076322;28;19969;-63
2023/10/24 08:00:46;;;;;;;;;;;24.60;47.70;;;;;;5069709;28;19932;-62
2023/10/24 08:03:15;;;;;;;;;;;24.50;47.60;;;;;;5080523;28;19932;-62
2023/10/24 08:05:42;;;;;;;;;;;24.60;47.50;;;;;;5077326;28;20014;-62
2023/10/24 08:08:09;;;;;;;;;;;24.60;47.50;;;;;;5076964;28;19935;-64
2023/10/24 08:10:37;;;;;;;;;;;24.60;47.50;;;;;;5075055;28;19967;-63
2023/10/24 08:13:04;;;;;;;;;;;24.70;47.50;;;;;;5074899;28;19962;-65
2023/10/24 08:15:31;;;;;;;;;;;24.70;47.40;;;;;;5074277;28;19932;-62
2023/10/24 08:17:58;;;;;;;;;;;24.70;47.30;;;;;;5078049;28;20323;-63
2023/10/24 08:20:26;;;;;;;;;;;24.70;47.20;;;;;;5073675;28;19924;-63
2023/10/24 08:22:54;;;;;;;;;;;24.80;47.10;;;;;;5074241;28;19924;-62
2023/10/24 08:25:21;;;;;;;;;;;24.80;47.00;;;;;;5073537;28;19932;-61
2023/10/24 08:27:49;;;;;;;;;;;24.90;46.90;;;;;;5073747;28;19924;-62
2023/10/24 08:30:16;;;;;;;;;;;24.90;47.10;;;;;;5075485;28;19929;-62
2023/10/24 08:32:43;;;;;;;;;;;24.90;47.10;;;;;;5077260;28;20260;-61
2023/10/24 08:35:10;;;;;;;;;;;24.90;47.10;;;;;;5075623;28;19928;-62
2023/10/24 08:37:37;;;;;;;;;;;24.90;47.20;;;;;;5075753;28;19970;-60
2023/10/24 08:40:05;;;;;;;;;;;24.90;47.10;;;;;;5079318;28;19924;-60
2023/10/24 08:42:33;;;;;;;;;;;25.00;47.40;;;;;;5078556;28;19979;-61
2023/10/24 08:45:00;;;;;;;;;;;25.00;46.90;;;;;;5074226;28;19924;-61
2023/10/24 08:47:29;;;;;;;;;;;25.00;47.00;;;;;;5075785;28;19983;-64
2023/10/24 08:49:59;;;;;;;;;;;25.00;47.10;;;;;;5076238;28;19924;-63
2023/10/24 08:52:28;;;;;;;;;;;25.10;47.20;;;;;;5076664;28;20027;-61
2023/10/24 08:54:59;;;;;;;;;;;25.10;47.10;;;;;;5075805;28;19978;-62
2023/10/24 08:57:28;;;;;;;;;;;25.10;46.90;;;;;;5073810;28;20276;-62
2023/10/24 08:59:58;;;;;;;;;;;25.20;46.80;;;;;;5075006;28;19932;-62
2023/10/24 09:02:28;;;;;;;;;;;25.20;46.90;;;;;;5075156;28;19991;-65
2023/10/24 09:04:55;;;;;;;;;;;25.20;46.80;;;;;;5076813;28;19928;-62
2023/10/24 09:07:22;;;;;;;;;;;25.30;46.90;;;;;;5074181;28;20034;-62
2023/10/24 09:09:49;;;;;;;;;;;25.30;46.90;;;;;;5071935;28;19982;-62
2023/10/24 09:12:17;;;;;;;;;;;25.30;46.80;;;;;;5071810;28;20407;-64
2023/10/24 09:14:45;;;;;;;;;;;25.40;46.80;;;;;;5077567;28;19924;-64
2023/10/24 09:17:22;;;;;;;;;;;25.40;46.70;;;;;;5076141;28;19932;-61
2023/10/24 09:19:50;;;;;;;;;;;25.40;46.80;;;;;;5073089;28;20029;-66
2023/10/24 09:22:17;;;;;;;;;;;25.40;46.80;;;;;;5082775;28;19932;-63
2023/10/24 09:24:45;;;;;;;;;;;25.40;46.90;;;;;;5077336;28;20668;-61
2023/10/24 09:27:16;;;;;;;;;;;25.50;46.60;;;;;;5083309;28;19948;-67
2023/10/24 09:29:43;;;;;;;;;;;25.50;46.50;;;;;;5077485;28;20361;-62
2023/10/24 09:32:15;;;;;;;;;;;25.50;46.50;;;;;;5076034;28;20441;-64
2023/10/24 09:34:43;;;;;;;;;;;25.60;46.40;;;;;;5075845;28;19940;-61
2023/10/24 09:37:13;;;;;;;;;;;25.60;46.30;;;;;;5073075;28;19924;-62
2023/10/24 09:39:52;;;;;;;;;;;25.60;46.30;;;;;;5082111;28;20010;-62
2023/10/24 09:42:25;;;;;;;;;;;25.70;46.30;;;;;;5072209;28;19967;-63
2023/10/24 09:44:58;;;;;;;;;;;25.60;46.20;;;;;;5078329;28;19930;-62
2023/10/24 09:47:26;;;;;;;;;;;25.70;46.30;;;;;;5070622;28;19959;-62
2023/10/24 09:49:54;;;;;;;;;;;25.70;46.40;;;;;;5079627;28;19958;-63
2023/10/24 09:52:23;;;;;;;;;;;25.70;46.60;;;;;;5073002;28;19928;-61
2023/10/24 09:54:51;;;;;;;;;;;25.70;46.40;;;;;;5074744;28;20351;-61
2023/10/24 09:57:20;;;;;;;;;;;25.70;46.50;;;;;;5087612;28;19963;-61
2023/10/24 09:59:49;;;;;;;;;;;25.70;46.40;;;;;;5089123;28;20002;-60
2023/10/24 10:02:21;;;;;;;;;;;25.70;46.40;;;;;;5079885;28;19928;-62
2023/10/24 10:04:48;;;;;;;;;;;25.70;46.30;;;;;;5077601;28;20392;-62
2023/10/24 10:07:17;;;;;;;;;;;25.70;46.20;;;;;;5078018;28;19928;-62
2023/10/24 10:09:47;;;;;;;;;;;25.70;46.20;;;;;;5085964;28;20407;-61
2023/10/24 10:12:17;;;;;;;;;;;25.80;46.30;;;;;;5083691;28;19938;-61
2023/10/24 10:15:04;;;;;;;;;;;25.80;46.30;;;;;;5085681;28;19924;-61
2023/10/24 10:17:51;;;;;;;;;;;25.70;46.30;;;;;;5078538;28;20476;-62
2023/10/24 10:20:36;;;;;;;;;;;25.70;46.40;;;;;;5083656;28;19925;-62
2023/10/24 10:23:23;;;;;;;;;;;25.70;46.50;;;;;;5080748;28;19999;-61
2023/10/24 10:26:09;;;;;;;;;;;25.70;46.60;;;;;;5079545;28;19931;-61
2023/10/24 10:28:56;;;;;;;;;;;25.70;46.70;;;;;;5080625;28;19949;-61
2023/10/24 10:31:33;;;;;;;;;;;25.70;46.60;;;;;;5079803;28;20020;-61
2023/10/24 10:34:30;;;;;;;;;;;25.70;46.50;;;;;;5080292;28;20292;-61
2023/10/24 10:36:58;;;;;;;;;;;25.70;46.50;;;;;;5079688;28;20019;-60
2023/10/24 10:39:26;;;;;;;;;;;25.70;46.60;;;;;;5083432;28;19954;-61
2023/10/24 10:41:53;;;;;;;;;;;25.70;46.50;;;;;;5077930;28;19929;-61
2023/10/24 10:44:40;;;;;;;;;;;25.70;46.60;;;;;;5078222;28;19972;-61
2023/10/24 10:47:14;;;;;;;;;;;25.70;46.60;;;;;;5086024;28;19932;-61
2023/10/24 10:49:46;;;;;;;;;;;25.70;46.80;;;;;;5083636;28;19924;-61
2023/10/24 10:52:33;;;;;;;;;;;25.60;46.70;;;;;;5074847;28;20049;-61
2023/10/24 10:55:20;;;;;;;;;;;25.70;46.80;;;;;;5074929;28;20286;-61
2023/10/24 10:58:10;;;;;;;;;;;25.60;46.70;;;;;;5070737;28;20011;-61
2023/10/24 11:00:52;;;;;;;;;;;25.60;46.80;;;;;;5073022;28;19932;-62
2023/10/24 11:03:34;;;;;;;;;;;25.60;46.70;;;;;;5072982;28;20060;-61
2023/10/24 11:06:09;;;;;;;;;;;25.60;46.80;;;;;;5083076;28;20039;-61
2023/10/24 11:08:36;;;;;;;;;;;25.60;46.80;;;;;;5080619;28;20031;-61
2023/10/24 11:11:09;;;;;;;;;;;25.60;46.90;;;;;;5073891;28;20369;-61
2023/10/24 11:13:41;;;;;;;;;;;25.50;46.90;;;;;;5071719;28;20459;-61
2023/10/24 11:16:09;;;;;;;;;;;25.50;47.10;;;;;;5073295;28;19938;-61
2023/10/24 11:18:56;;;;;;;;;;;25.50;47.10;;;;;;5075073;28;19924;-61
2023/10/24 11:21:23;;;;;;;;;;;25.50;47.20;;;;;;5074460;28;19970;-62
2023/10/24 11:23:50;;;;;;;;;;;25.50;47.30;;;;;;5074195;28;19978;-61
2023/10/24 11:26:18;;;;;;;;;;;25.50;47.30;;;;;;5073894;28;19977;-61
2023/10/24 11:28:48;;;;;;;;;;;25.50;47.30;;;;;;5074955;28;19932;-62
2023/10/24 11:31:22;;;;;;;;;;;25.40;47.40;;;;;;5075560;28;19966;-61
2023/10/24 11:33:49;;;;;;;;;;;25.40;47.70;;;;;;5073957;28;19931;-61
2023/10/24 11:36:16;;;;;;;;;;;25.40;48.00;;;;;;5071603;28;19968;-61
2023/10/24 11:38:44;;;;;;;;;;;25.40;48.00;;;;;;5071992;28;19939;-61
2023/10/24 11:41:11;;;;;;;;;;;25.40;48.10;;;;;;5080655;28;19970;-61
2023/10/24 11:43:38;;;;;;;;;;;25.40;48.30;;;;;;5073944;28;20268;-62
2023/10/24 11:46:05;;;;;;;;;;;25.40;48.10;;;;;;5076317;28;20383;-61
2023/10/24 11:48:32;;;;;;;;;;;25.40;48.00;;;;;;5071805;28;19956;-61
2023/10/24 11:51:02;;;;;;;;;;;25.40;48.20;;;;;;5070931;28;20015;-62
2023/10/24 11:53:30;;;;;;;;;;;25.50;48.20;;;;;;5073061;28;20304;-60
2023/10/24 11:55:58;;;;;;;;;;;25.40;48.20;;;;;;5069656;28;19928;-61
2023/10/24 11:58:32;;;;;;;;;;;25.50;48.30;;;;;;5074916;28;19932;-61
2023/10/24 12:01:01;;;;;;;;;;;25.40;48.20;;;;;;5071858;28;20300;-62
2023/10/24 12:03:45;;;;;;;;;;;25.50;48.30;;;;;;5067514;28;19939;-60
2023/10/24 12:06:18;;;;;;;;;;;25.40;48.20;;;;;;5068974;28;20382;-60
2023/10/24 12:08:47;;;;;;;;;;;25.40;48.20;;;;;;5069893;28;20042;-59
2023/10/24 12:11:15;;;;;;;;;;;25.40;48.50;;;;;;5077504;28;19932;-61
2023/10/24 12:13:42;;;;;;;;;;;25.40;48.50;;;;;;5073923;28;19924;-60
2023/10/24 12:16:09;;;;;;;;;;;25.40;48.40;;;;;;5078346;28;20039;-61
2023/10/24 12:18:39;;;;;;;;;;;25.40;48.40;;;;;;5080249;28;20019;-60
2023/10/24 12:21:08;;;;;;;;;;;25.40;48.60;;;;;;5076376;28;19933;-60
2023/10/24 12:23:36;;;;;;;;;;;25.40;48.40;;;;;;5074670;28;19987;-60
2023/10/24 12:26:07;;;;;;;;;;;25.40;48.40;;;;;;5076240;28;19969;-59
2023/10/24 12:28:34;;;;;;;;;;;25.50;48.60;;;;;;5081838;28;19932;-60
2023/10/24 12:31:03;;;;;;;;;;;25.50;48.70;;;;;;5076753;28;19930;-60
2023/10/24 12:33:31;;;;;;;;;;;25.50;48.80;;;;;;5079818;28;19932;-60
2023/10/24 12:35:59;;;;;;;;;;;25.50;48.80;;;;;;5073769;28;19958;-59
2023/10/24 12:38:28;;;;;;;;;;;25.50;48.90;;;;;;5078161;28;20032;-58
2023/10/24 12:40:55;;;;;;;;;;;25.50;49.00;;;;;;5083640;28;19970;-59
2023/10/24 12:43:22;;;;;;;;;;;25.50;49.10;;;;;;5076722;28;20326;-61
2023/10/24 12:45:50;;;;;;;;;;;25.50;49.10;;;;;;5079450;28;19936;-59
2023/10/24 12:48:17;;;;;;;;;;;25.40;49.10;;;;;;5080677;28;19932;-59
2023/10/24 12:50:46;;;;;;;;;;;25.40;49.10;;;;;;5075598;28;20391;-58
2023/10/24 12:53:13;;;;;;;;;;;25.50;49.20;;;;;;5078264;28;19924;-58
2023/10/24 12:55:40;;;;;;;;;;;25.50;49.20;;;;;;5081651;28;19931;-59
2023/10/24 12:58:07;;;;;;;;;;;25.50;49.30;;;;;;5078146;28;19929;-59
2023/10/24 13:00:35;;;;;;;;;;;25.40;49.30;;;;;;5078416;28;19932;-59
2023/10/24 13:03:02;;;;;;;;;;;25.40;49.40;;;;;;5078680;28;19970;-59
2023/10/24 13:05:46;;;;;;;;;;;25.40;49.40;;;;;;5077150;28;19955;-59
2023/10/24 13:08:14;;;;;;;;;;;25.40;49.50;;;;;;5075516;28;19932;-59
2023/10/24 13:10:41;;;;;;;;;;;25.30;49.60;;;;;;5077461;28;20453;-58
2023/10/24 13:13:08;;;;;;;;;;;25.30;49.70;;;;;;5078713;28;19943;-60
2023/10/24 13:15:35;;;;;;;;;;;25.30;49.80;;;;;;5075746;28;20607;-60
2023/10/24 13:18:02;;;;;;;;;;;25.30;49.90;;;;;;5077340;28;19924;-60
2023/10/24 13:20:29;;;;;;;;;;;25.30;50.20;;;;;;5074971;28;20284;-60
2023/10/24 13:22:56;;;;;;;;;;;25.30;50.40;;;;;;5080121;28;19925;-61
2023/10/24 13:25:23;;;;;;;;;;;25.20;50.50;;;;;;5080139;28;19925;-60
2023/10/24 13:27:50;;;;;;;;;;;25.20;50.50;;;;;;5081686;28;19967;-60
2023/10/24 13:30:17;;;;;;;;;;;25.20;50.90;;;;;;5078077;28;20021;-66
2023/10/24 13:33:04;;;;;;;;;;;25.20;50.80;;;;;;5080510;28;19934;-61
2023/10/24 13:35:31;;;;;;;;;;;25.10;50.90;;;;;;5075641;28;19978;-63
2023/10/24 13:38:01;;;;;;;;;;;25.20;51.10;;;;;;5082522;28;20015;-64
2023/10/24 13:40:29;;;;;;;;;;;25.20;51.10;;;;;;5080539;28;19932;-67
2023/10/24 13:42:56;;;;;;;;;;;25.20;51.20;;;;;;5077949;28;19932;-65
2023/10/24 13:45:25;;;;;;;;;;;25.20;51.30;;;;;;5076130;28;19952;-61
2023/10/24 13:47:52;;;;;;;;;;;25.20;51.30;;;;;;5079382;28;19943;-60
2023/10/24 13:50:19;;;;;;;;;;;25.20;51.40;;;;;;5078248;28;19979;-62
2023/10/24 13:52:48;;;;;;;;;;;25.10;51.50;;;;;;5067458;28;19968;-63
2023/10/24 13:55:16;;;;;;;;;;;25.20;51.40;;;;;;5086081;28;19925;-63
2023/10/24 13:57:43;;;;;;;;;;;25.20;51.40;;;;;;5079201;28;19924;-62
2023/10/24 14:00:11;;;;;;;;;;;25.20;51.40;;;;;;5075697;28;20271;-62
2023/10/24 14:02:38;;;;;;;;;;;25.20;51.40;;;;;;5075659;28;20153;-62
2023/10/24 14:05:06;;;;;;;;;;;25.20;51.40;;;;;;5079509;28;19925;-61
2023/10/24 14:07:33;;;;;;;;;;;25.10;51.30;;;;;;5075199;28;19928;-61
2023/10/24 14:10:00;;;;;;;;;;;25.20;51.40;;;;;;5072336;28;20607;-60
2023/10/24 14:12:27;;;;;;;;;;;25.10;51.40;;;;;;5076107;28;20297;-61
2023/10/24 14:14:54;;;;;;;;;;;25.20;51.60;;;;;;5081133;28;20420;-60
2023/10/24 14:17:21;;;;;;;;;;;25.20;51.60;;;;;;5078566;28;19932;-60
2023/10/24 14:19:50;;;;;;;;;;;25.10;51.50;;;;;;5072590;28;19975;-59
2023/10/24 14:22:17;;;;;;;;;;;25.10;51.50;;;;;;5078842;28;20300;-61
2023/10/24 14:24:44;;;;;;;;;;;25.20;51.60;;;;;;5076904;28;19931;-60